Time;durP1;ratioP1;P1;durP2;ratioP2;P2;SDS_P1;SDS_P2;PMS_P1;PMS_P2;Temp;Humidity;BMP_temperature;BMP_pressure;BME280_temperature;BME280_humidity;BME280_pressure;Samples;Min_cycle;Max_cycle;Signal;HPM_P1;HPM_P2
2022/05/23 05:05:40;;;;;;;;;;;;;;;19.54;100.00;97768.47;4863018;29;19968;-70
2022/05/23 05:08:07;;;;;;;;;;;;;;;19.64;100.00;97755.06;4861896;29;19978;-71
2022/05/23 05:10:38;;;;;;;;;;;;;;;19.77;100.00;97758.56;4848102;29;19958;-71
2022/05/23 05:13:06;;;;;;;;;;;;;;;19.95;100.00;97752.09;4848196;29;19949;-72
2022/05/23 05:15:34;;;;;;;;;;;;;;;20.17;100.00;97749.88;4863547;29;19969;-72
2022/05/23 05:18:02;;;;;;;;;;;;;;;20.47;97.21;97756.63;4847552;29;19948;-71
2022/05/23 05:20:34;;;;;;;;;;;;;;;20.53;99.28;97744.13;4847678;29;19962;-72
2022/05/23 05:23:20;;;;;;;;;;;;;;;20.60;97.38;97743.00;4864149;29;19979;-72
2022/05/23 05:25:57;;;;;;;;;;;;;;;20.54;95.35;97750.63;4847977;29;19958;-72
2022/05/23 05:28:33;;;;;;;;;;;;;;;20.55;99.63;97735.91;4847086;29;19952;-72
2022/05/23 05:31:03;;;;;;;;;;;;;;;20.55;95.54;97730.25;4864156;29;19951;-71
2022/05/23 05:33:35;;;;;;;;;;;;;;;20.44;97.74;97734.88;4864367;29;19948;-71
2022/05/23 05:36:05;;;;;;;;;;;;;;;20.49;90.72;97734.22;4849695;29;19955;-71
2022/05/23 05:38:40;;;;;;;;;;;;;;;20.64;90.44;97732.28;4867726;29;19953;-71
2022/05/23 05:41:13;;;;;;;;;;;;;;;20.74;86.51;97737.44;4867786;29;19948;-72
2022/05/23 05:43:43;;;;;;;;;;;;;;;20.78;90.75;97737.28;4850552;29;19950;-72
2022/05/23 05:46:16;;;;;;;;;;;;;;;20.98;87.60;97737.47;4850200;29;19951;-72
2022/05/23 05:48:52;;;;;;;;;;;;;;;21.05;88.87;97734.34;4863610;29;20243;-72
2022/05/23 05:51:21;;;;;;;;;;;;;;;21.20;87.22;97731.56;4831997;29;19961;-72
2022/05/23 05:54:08;;;;;;;;;;;;;;;21.19;90.33;97741.34;4848415;29;20329;-72
2022/05/23 05:56:43;;;;;;;;;;;;;;;21.30;89.38;97733.84;4847370;29;19952;-72
2022/05/23 05:59:11;;;;;;;;;;;;;;;21.40;89.36;97740.28;4846851;29;19955;-72
2022/05/23 06:01:43;;;;;;;;;;;;;;;21.54;87.34;97737.50;4846703;29;19948;-72
2022/05/23 06:04:11;;;;;;;;;;;;;;;21.50;88.42;97741.78;4853947;29;19980;-72
2022/05/23 06:12:35;;;;;;;;;;;;;;;21.49;86.53;97729.63;4865276;29;19953;-72
2022/05/23 06:15:21;;;;;;;;;;;;;;;21.52;88.73;97725.81;4900055;29;19962;-72
2022/05/23 06:17:50;;;;;;;;;;;;;;;21.50;93.10;97725.50;4870504;29;19947;-77
2022/05/23 06:20:18;;;;;;;;;;;;;;;21.54;86.85;97719.66;4866742;29;19954;-77
2022/05/23 06:22:50;;;;;;;;;;;;;;;21.62;87.56;97720.84;4868380;29;19949;-77
2022/05/23 06:25:18;;;;;;;;;;;;;;;21.68;90.02;97718.13;4867940;29;19956;-77
2022/05/23 06:27:46;;;;;;;;;;;;;;;21.67;91.77;97722.22;4868306;29;19968;-77
2022/05/23 06:30:18;;;;;;;;;;;;;;;21.70;92.17;97729.78;4866944;29;20274;-77
2022/05/23 06:32:54;;;;;;;;;;;;;;;21.78;100.00;97728.16;4877444;29;19946;-77
2022/05/23 06:35:42;;;;;;;;;;;;;;;21.96;100.00;97740.19;4860200;29;19955;-77
2022/05/23 06:38:09;;;;;;;;;;;;;;;22.17;95.00;97755.38;4881859;29;19948;-77
2022/05/23 06:40:50;;;;;;;;;;;;;;;22.45;86.14;97759.50;4883270;29;19953;-77
2022/05/23 06:43:50;;;;;;;;;;;;;;;22.78;85.79;97762.97;4847581;29;19954;-77
2022/05/23 06:46:29;;;;;;;;;;;;;;;22.99;82.99;97760.19;4879453;29;19948;-77
2022/05/23 06:49:22;;;;;;;;;;;;;;;23.17;80.39;97759.97;4854671;29;19950;-77
2022/05/23 06:52:15;;;;;;;;;;;;;;;23.28;79.71;97754.44;4883406;29;20176;-77
2022/05/23 06:54:57;;;;;;;;;;;;;;;23.49;80.61;97754.00;4867322;29;20376;-77
2022/05/23 06:57:35;;;;;;;;;;;;;;;23.61;83.10;97754.94;4882430;29;19967;-77
2022/05/23 07:00:04;;;;;;;;;;;;;;;23.68;82.60;97753.72;4867088;29;20357;-77
2022/05/23 07:02:32;;;;;;;;;;;;;;;23.77;82.10;97757.19;4867907;29;19954;-78
2022/05/23 07:14:06;;;;;;;;;;;;;;;24.01;82.68;97737.75;4881467;29;19955;-78
2022/05/23 07:16:34;;;;;;;;;;;;;;;24.11;85.09;97744.16;4867454;29;19946;-78
2022/05/23 07:19:04;;;;;;;;;;;;;;;24.20;82.08;97738.28;4867509;29;19948;-77
2022/05/23 07:21:38;;;;;;;;;;;;;;;24.32;85.13;97737.09;4867430;29;19958;-77
2022/05/23 07:24:13;;;;;;;;;;;;;;;24.41;87.17;97739.78;4867178;29;19949;-77
2022/05/23 07:26:57;;;;;;;;;;;;;;;24.55;85.16;97740.97;4867227;29;20266;-77
2022/05/23 07:29:25;;;;;;;;;;;;;;;24.56;84.77;97751.09;4867009;29;19983;-77
2022/05/23 07:31:54;;;;;;;;;;;;;;;24.70;83.74;97753.84;4866927;29;19979;-77
2022/05/23 07:34:22;;;;;;;;;;;;;;;24.71;80.98;97757.50;4851471;29;20367;-77
2022/05/23 07:36:50;;;;;;;;;;;;;;;24.78;81.12;97754.19;4866973;29;19953;-76
2022/05/23 07:39:17;;;;;;;;;;;;;;;24.67;82.81;97751.22;4866501;29;19957;-77
2022/05/23 07:41:51;;;;;;;;;;;;;;;24.70;84.76;97748.13;4878729;29;20323;-77
2022/05/23 07:44:22;;;;;;;;;;;;;;;24.77;84.33;97749.78;4882547;29;19950;-77
2022/05/23 07:46:53;;;;;;;;;;;;;;;24.80;83.35;97746.69;4866592;29;19962;-76
2022/05/23 07:49:22;;;;;;;;;;;;;;;24.83;84.19;97752.69;4882141;29;19949;-76
2022/05/23 07:52:02;;;;;;;;;;;;;;;24.92;83.52;97750.41;4865684;29;19960;-76
2022/05/23 08:00:37;;;;;;;;;;;;;;;24.92;88.68;97744.69;4843415;29;19954;-76
2022/05/23 08:03:18;;;;;;;;;;;;;;;24.97;88.67;97735.38;4864549;29;19957;-76
2022/05/23 08:05:55;;;;;;;;;;;;;;;25.10;85.60;97743.53;4882433;29;19956;-76
2022/05/23 08:08:23;;;;;;;;;;;;;;;25.12;84.50;97738.88;4866006;29;20261;-76
2022/05/23 08:10:50;;;;;;;;;;;;;;;25.30;92.40;97737.69;4882808;29;19948;-76
2022/05/23 08:13:18;;;;;;;;;;;;;;;25.30;86.45;97738.50;4880021;29;19950;-76
2022/05/23 08:15:46;;;;;;;;;;;;;;;25.39;82.47;97744.00;4882998;29;19958;-76
2022/05/23 08:18:17;;;;;;;;;;;;;;;25.56;81.32;97747.00;4879945;29;19951;-76
2022/05/23 08:20:51;;;;;;;;;;;;;;;25.71;82.29;97741.06;4884148;29;19948;-76
2022/05/23 08:23:23;;;;;;;;;;;;;;;25.79;80.32;97736.44;4865665;29;19954;-76
2022/05/23 08:26:18;;;;;;;;;;;;;;;25.92;80.01;97728.16;4858649;29;19948;-76
2022/05/23 08:28:46;;;;;;;;;;;;;;;25.99;78.44;97734.16;4866109;29;19984;-76
2022/05/23 08:31:16;;;;;;;;;;;;;;;25.95;82.40;97727.91;4881941;29;19959;-76
2022/05/23 08:33:54;;;;;;;;;;;;;;;25.92;80.39;97728.16;4865795;29;20253;-76
2022/05/23 08:36:27;;;;;;;;;;;;;;;25.90;77.32;97722.16;4866576;29;19954;-76
2022/05/23 08:38:54;;;;;;;;;;;;;;;26.17;78.30;97737.88;4865927;29;19948;-76
2022/05/23 08:41:34;;;;;;;;;;;;;;;26.33;77.49;97726.50;4866546;29;19949;-76
2022/05/23 08:44:17;;;;;;;;;;;;;;;26.42;78.58;97731.97;4865569;29;19954;-76
2022/05/23 08:47:01;;;;;;;;;;;;;;;26.45;74.14;97730.16;4865077;29;19955;-76
2022/05/23 08:49:29;;;;;;;;;;;;;;;26.48;62.46;97732.00;4881622;29;19970;-76
2022/05/23 08:51:57;;;;;;;;;;;;;;;26.21;75.77;97724.13;4865719;29;19956;-76
2022/05/23 08:54:31;;;;;;;;;;;;;;;26.45;85.78;97713.75;4865862;29;19957;-76
2022/05/23 08:57:26;;;;;;;;;;;;;;;26.58;64.11;97725.47;4882724;29;20329;-76
2022/05/23 08:59:59;;;;;;;;;;;;;;;26.24;75.67;97717.34;4865514;29;19967;-76
2022/05/23 09:02:37;;;;;;;;;;;;;;;26.40;77.07;97710.84;4859669;29;19961;-76
2022/05/23 09:05:23;;;;;;;;;;;;;;;26.53;60.86;97702.53;4847898;29;19981;-76
2022/05/23 09:08:06;;;;;;;;;;;;;;;26.49;68.09;97710.59;4863850;29;19974;-76
2022/05/23 09:10:43;;;;;;;;;;;;;;;26.43;76.41;97702.00;4866438;29;19956;-76
2022/05/23 09:13:12;;;;;;;;;;;;;;;26.59;64.09;97697.56;4850946;29;19952;-76
2022/05/23 09:15:39;;;;;;;;;;;;;;;26.64;72.65;97696.81;4867068;29;19956;-76
2022/05/23 09:18:11;;;;;;;;;;;;;;;26.76;66.96;97695.53;4867002;29;19957;-76
2022/05/23 09:20:46;;;;;;;;;;;;;;;26.68;67.72;97703.06;4867367;29;19958;-76
2022/05/23 09:23:23;;;;;;;;;;;;;;;26.76;68.10;97695.53;4867515;29;19951;-76
2022/05/23 09:25:57;;;;;;;;;;;;;;;26.64;65.21;97680.38;4866475;29;19974;-70
2022/05/23 09:28:27;;;;;;;;;;;;;;;26.79;72.23;97685.88;4866979;29;20402;-69
2022/05/23 09:30:59;;;;;;;;;;;;;;;27.08;63.06;97690.28;4866879;29;19951;-69
2022/05/23 09:33:29;;;;;;;;;;;;;;;27.09;66.02;97686.13;4866661;29;20340;-70
2022/05/23 09:36:14;;;;;;;;;;;;;;;26.83;64.78;97692.13;4869725;29;19953;-69
2022/05/23 09:38:46;;;;;;;;;;;;;;;26.93;74.93;97686.91;4885040;29;20258;-69
2022/05/23 09:50:12;;;;;;;;;;;;;;;27.03;79.40;97680.38;4903708;29;19959;-70
2022/05/23 09:52:54;;;;;;;;;;;;;;;27.10;78.23;97684.78;4904226;29;20232;-70
2022/05/23 09:55:34;;;;;;;;;;;;;;;27.13;84.45;97673.06;4903978;29;19948;-69
2022/05/23 09:58:04;;;;;;;;;;;;;;;27.30;72.06;97673.81;4903620;29;19950;-69
2022/05/23 10:00:34;;;;;;;;;;;;;;;27.29;66.90;97669.34;4904120;29;19945;-69
2022/05/23 10:03:04;;;;;;;;;;;;;;;27.30;67.70;97667.28;4903933;29;19956;-70
2022/05/23 10:05:34;;;;;;;;;;;;;;;27.24;74.27;97664.41;4897294;29;19977;-70
2022/05/23 10:08:14;;;;;;;;;;;;;;;27.40;73.10;97667.78;4891531;29;19958;-70
2022/05/23 10:10:55;;;;;;;;;;;;;;;27.51;62.84;97673.53;4897140;29;19944;-70
2022/05/23 10:13:25;;;;;;;;;;;;;;;27.56;59.18;97669.84;4903421;29;19948;-70
2022/05/23 10:15:57;;;;;;;;;;;;;;;27.65;48.96;97664.59;4903009;29;19953;-70
2022/05/23 10:18:26;;;;;;;;;;;;;;;27.69;50.65;97659.34;4903377;29;20387;-70
2022/05/23 10:20:55;;;;;;;;;;;;;;;27.65;47.22;97644.47;4884795;29;19951;-70
2022/05/23 10:23:25;;;;;;;;;;;;;;;27.68;55.17;97640.53;4884705;29;19950;-70
2022/05/23 10:26:12;;;;;;;;;;;;;;;27.71;51.27;97636.59;4885009;29;19944;-69
2022/05/23 10:28:53;;;;;;;;;;;;;;;27.79;45.12;97645.44;4884447;29;19969;-70
2022/05/23 10:31:37;;;;;;;;;;;;;;;27.71;54.27;97653.06;4885223;29;19945;-69
2022/05/23 10:34:08;;;;;;;;;;;;;;;27.74;46.64;97646.25;4884119;29;20339;-69
2022/05/23 10:36:36;;;;;;;;;;;;;;;27.78;39.47;97647.53;4883803;29;19951;-70
2022/05/23 10:42:07;;;;;;;;;;;;;;;27.81;50.44;97637.06;4884524;29;19958;-70
2022/05/23 10:44:34;;;;;;;;;;;;;;;27.87;43.37;97638.63;4884896;29;19959;-69
2022/05/23 10:47:08;;;;;;;;;;;;;;;27.92;50.98;97637.81;4883875;29;19944;-70
2022/05/23 10:49:43;;;;;;;;;;;;;;;27.96;50.98;97637.50;4884225;29;19979;-70
2022/05/23 10:52:18;;;;;;;;;;;;;;;28.11;48.55;97622.81;4884512;29;19958;-70
2022/05/23 10:54:48;;;;;;;;;;;;;;;28.05;49.67;97631.47;4883961;29;20349;-70
2022/05/23 10:57:21;;;;;;;;;;;;;;;28.14;45.26;97631.16;4884430;29;19948;-70
2022/05/23 10:59:57;;;;;;;;;;;;;;;27.93;50.60;97624.97;4883846;29;19954;-70
2022/05/23 11:02:30;;;;;;;;;;;;;;;28.08;53.15;97624.66;4883804;29;19950;-70
2022/05/23 11:04:58;;;;;;;;;;;;;;;28.14;57.43;97618.88;4884500;29;19974;-70
2022/05/23 11:07:52;;;;;;;;;;;;;;;28.27;44.99;97619.81;4883990;29;19960;-70
2022/05/23 11:10:42;;;;;;;;;;;;;;;28.21;48.54;97621.97;4880855;29;20390;-70
2022/05/23 11:13:18;;;;;;;;;;;;;;;28.33;46.09;97611.94;4883911;29;20254;-70
2022/05/23 11:15:49;;;;;;;;;;;;;;;28.30;42.83;97600.72;4865766;29;19945;-70
2022/05/23 11:18:34;;;;;;;;;;;;;;;28.28;53.06;97594.72;4865308;29;19956;-70
2022/05/23 11:21:05;;;;;;;;;;;;;;;28.43;45.11;97606.63;4865293;29;20347;-70
2022/05/23 11:23:34;;;;;;;;;;;;;;;28.41;46.43;97592.81;4865368;29;19968;-70
2022/05/23 11:26:16;;;;;;;;;;;;;;;28.43;44.11;97598.78;4862389;29;19954;-70
2022/05/23 11:34:48;;;;;;;;;;;;;;;28.34;50.13;97581.09;4842241;29;19954;-70
2022/05/23 11:39:51;;;;;;;;;;;;;;;28.45;49.07;97570.28;4865144;29;19955;-70
2022/05/23 11:42:23;;;;;;;;;;;;;;;28.47;53.91;97572.59;4865399;29;19953;-70
2022/05/23 11:44:53;;;;;;;;;;;;;;;28.41;48.48;97569.78;4865186;29;19948;-70
2022/05/23 11:47:23;;;;;;;;;;;;;;;28.31;45.65;97567.78;4864643;29;19955;-68
2022/05/23 11:50:00;;;;;;;;;;;;;;;28.32;50.03;97555.72;4864693;29;19981;-70
2022/05/23 11:52:40;;;;;;;;;;;;;;;28.33;47.63;97547.91;4865011;29;20377;-70
2022/05/23 11:55:11;;;;;;;;;;;;;;;28.44;48.11;97554.31;4881088;29;20346;-70
2022/05/23 11:57:40;;;;;;;;;;;;;;;28.47;44.78;97552.47;4883114;29;19957;-69
2022/05/23 12:00:42;;;;;;;;;;;;;;;28.57;45.38;97547.94;4883099;29;19950;-68
2022/05/23 12:03:15;;;;;;;;;;;;;;;28.62;44.88;97552.88;4825937;29;20266;-69
2022/05/23 12:05:42;;;;;;;;;;;;;;;28.55;45.54;97541.94;4873722;29;19955;-69
2022/05/23 12:08:27;;;;;;;;;;;;;;;28.70;43.59;97547.31;4883071;29;19959;-70
2022/05/23 12:10:55;;;;;;;;;;;;;;;28.61;46.43;97543.47;4883034;29;19961;-70
2022/05/23 12:13:28;;;;;;;;;;;;;;;28.62;49.74;97550.78;4884735;29;20266;-70
2022/05/23 12:15:58;;;;;;;;;;;;;;;28.70;43.05;97556.72;4870950;29;20906;-70
2022/05/23 12:18:25;;;;;;;;;;;;;;;28.67;40.77;97554.91;4876793;29;19952;-69
2022/05/23 12:20:55;;;;;;;;;;;;;;;28.68;50.83;97549.97;4882167;29;19950;-69
2022/05/23 12:23:42;;;;;;;;;;;;;;;28.58;43.71;97543.75;4876998;29;19958;-69
2022/05/23 12:26:10;;;;;;;;;;;;;;;28.66;43.43;97538.22;4882951;29;20448;-69
2022/05/23 12:28:44;;;;;;;;;;;;;;;28.74;46.01;97556.41;4882513;29;19963;-69
2022/05/23 12:31:13;;;;;;;;;;;;;;;28.60;45.97;97541.13;4882176;29;20252;-69
2022/05/23 12:33:49;;;;;;;;;;;;;;;28.74;48.31;97545.69;4884452;29;19951;-69
2022/05/23 12:36:21;;;;;;;;;;;;;;;28.69;43.64;97543.66;4882237;29;19949;-69
2022/05/23 12:39:01;;;;;;;;;;;;;;;28.66;43.37;97533.22;4877752;29;19955;-70
2022/05/23 12:41:31;;;;;;;;;;;;;;;28.77;44.82;97530.22;4887537;29;20339;-70
2022/05/23 12:43:58;;;;;;;;;;;;;;;28.82;45.08;97520.75;4882276;29;19980;-70
2022/05/23 12:46:35;;;;;;;;;;;;;;;28.91;44.85;97526.16;4886186;29;20257;-69
2022/05/23 12:49:08;;;;;;;;;;;;;;;28.83;44.81;97513.66;4885219;29;20329;-70
2022/05/23 12:51:35;;;;;;;;;;;;;;;28.94;43.54;97519.31;4887144;29;19951;-69
2022/05/23 12:54:03;;;;;;;;;;;;;;;28.90;43.60;97510.22;4883455;29;19949;-69
2022/05/23 12:56:30;;;;;;;;;;;;;;;28.85;51.71;97513.16;4890297;29;19954;-69
2022/05/23 12:59:23;;;;;;;;;;;;;;;28.89;39.99;97504.97;4886644;29;19960;-69
2022/05/23 13:01:54;;;;;;;;;;;;;;;28.88;49.09;97506.31;4903384;29;19958;-69
2022/05/23 13:04:23;;;;;;;;;;;;;;;28.76;48.67;97505.63;4891425;29;20372;-69
2022/05/23 13:06:55;;;;;;;;;;;;;;;28.87;43.64;97504.75;4901086;29;19965;-69
2022/05/23 13:09:48;;;;;;;;;;;;;;;28.89;44.30;97502.88;4897573;29;19964;-69
2022/05/23 13:12:19;;;;;;;;;;;;;;;28.77;44.00;97497.78;4868914;29;19945;-69
2022/05/23 13:14:54;;;;;;;;;;;;;;;28.66;48.28;97495.81;4885565;29;19954;-69
2022/05/23 13:17:41;;;;;;;;;;;;;;;28.66;44.92;97495.81;4889554;29;19954;-69
2022/05/23 13:23:15;;;;;;;;;;;;;;;28.68;42.96;97493.19;4872646;29;19953;-70
2022/05/23 13:25:43;;;;;;;;;;;;;;;28.65;47.54;97491.41;4883238;29;19953;-69
2022/05/23 13:28:11;;;;;;;;;;;;;;;28.68;45.92;97498.16;4885220;29;20269;-69
2022/05/23 13:30:48;;;;;;;;;;;;;;;28.63;51.10;97491.16;4874708;29;20321;-69
2022/05/23 13:33:18;;;;;;;;;;;;;;;28.73;55.97;97491.56;4885087;29;19955;-69
2022/05/23 13:35:47;;;;;;;;;;;;;;;28.72;46.63;97485.03;4881237;29;19946;-70
2022/05/23 13:38:22;;;;;;;;;;;;;;;28.71;53.51;97479.84;4875288;29;19956;-69
2022/05/23 13:40:53;;;;;;;;;;;;;;;28.68;52.10;97480.91;4880763;29;20368;-70
2022/05/23 13:43:31;;;;;;;;;;;;;;;28.70;46.82;97487.69;4883365;29;19956;-69
2022/05/23 13:46:00;;;;;;;;;;;;;;;28.65;43.61;97471.25;4884895;29;19950;-69
2022/05/23 13:48:42;;;;;;;;;;;;;;;28.69;46.08;97474.59;4881719;29;20409;-69
2022/05/23 13:51:14;;;;;;;;;;;;;;;28.68;45.85;97473.06;4866630;29;20361;-69
2022/05/23 13:53:46;;;;;;;;;;;;;;;28.58;46.38;97471.81;4876187;29;19967;-70
2022/05/23 13:56:13;;;;;;;;;;;;;;;28.57;44.33;97468.16;4875917;29;19952;-70
2022/05/23 13:58:45;;;;;;;;;;;;;;;28.58;48.67;97461.09;4884019;29;20338;-70
2022/05/23 14:01:22;;;;;;;;;;;;;;;28.57;50.65;97455.88;4884999;29;19950;-70
2022/05/23 14:03:58;;;;;;;;;;;;;;;28.66;48.47;97458.41;4884718;29;19978;-70
2022/05/23 14:06:40;;;;;;;;;;;;;;;28.62;52.25;97455.84;4883654;29;20379;-70
2022/05/23 14:09:07;;;;;;;;;;;;;;;28.67;41.11;97444.81;4878641;29;19956;-70
2022/05/23 14:11:36;;;;;;;;;;;;;;;28.48;46.68;97436.09;4884281;29;19975;-70
2022/05/23 14:14:13;;;;;;;;;;;;;;;28.47;44.17;97449.72;4884669;29;19953;-70
2022/05/23 14:16:41;;;;;;;;;;;;;;;28.46;47.34;97438.75;4879442;29;19951;-69
2022/05/23 14:19:09;;;;;;;;;;;;;;;28.45;48.63;97440.06;4884536;29;19951;-70
2022/05/23 14:21:37;;;;;;;;;;;;;;;28.42;49.95;97436.16;4883885;29;20358;-70
2022/05/23 14:24:18;;;;;;;;;;;;;;;28.33;48.06;97441.50;4883642;29;20367;-70
2022/05/23 14:27:00;;;;;;;;;;;;;;;28.22;47.00;97435.88;4884227;29;20233;-70
2022/05/23 14:29:29;;;;;;;;;;;;;;;28.15;48.09;97450.81;4883869;29;19955;-70
2022/05/23 14:32:01;;;;;;;;;;;;;;;28.08;46.44;97442.78;4876131;29;19965;-70
2022/05/23 14:34:33;;;;;;;;;;;;;;;28.08;47.17;97440.69;4884595;29;19944;-70
2022/05/23 14:37:03;;;;;;;;;;;;;;;28.11;46.39;97451.13;4884371;29;19956;-70
2022/05/23 14:39:31;;;;;;;;;;;;;;;28.14;46.74;97437.78;4884414;29;19961;-70
2022/05/23 14:42:17;;;;;;;;;;;;;;;28.02;48.94;97443.59;4884409;29;19952;-70
2022/05/23 14:45:01;;;;;;;;;;;;;;;27.91;47.09;97431.41;4878700;29;19955;-70
2022/05/23 14:47:29;;;;;;;;;;;;;;;27.85;45.76;97430.69;4883687;29;19950;-70
2022/05/23 14:49:56;;;;;;;;;;;;;;;27.82;49.98;97438.28;4884782;29;20370;-69
2022/05/23 14:52:32;;;;;;;;;;;;;;;27.89;52.23;97440.59;4883785;29;19949;-70
2022/05/23 14:55:18;;;;;;;;;;;;;;;27.82;61.43;97432.53;4885821;29;20202;-70
2022/05/23 15:00:42;;;;;;;;;;;;;;;27.69;52.71;97443.09;4883796;29;19959;-69
2022/05/23 15:03:14;;;;;;;;;;;;;;;27.74;51.66;97448.00;4876164;29;19950;-70
2022/05/23 15:05:41;;;;;;;;;;;;;;;27.72;48.95;97448.56;4864294;29;20405;-69
2022/05/23 15:08:09;;;;;;;;;;;;;;;27.73;53.84;97452.97;4870500;29;20341;-70
2022/05/23 15:10:36;;;;;;;;;;;;;;;27.64;50.60;97441.81;4868074;29;20030;-70
2022/05/23 15:13:04;;;;;;;;;;;;;;;27.59;55.80;97436.91;4873705;29;19952;-70
2022/05/23 15:15:31;;;;;;;;;;;;;;;27.53;53.58;97424.69;4864998;29;19956;-70
2022/05/23 15:17:58;;;;;;;;;;;;;;;27.57;52.73;97428.03;4865685;29;19945;-69
2022/05/23 15:20:26;;;;;;;;;;;;;;;27.48;57.04;97424.72;4883619;29;19958;-70
2022/05/23 15:22:53;;;;;;;;;;;;;;;27.46;58.38;97425.25;4872046;29;19951;-70
2022/05/23 15:25:22;;;;;;;;;;;;;;;27.43;57.22;97422.66;4880255;29;19957;-70
2022/05/23 15:27:50;;;;;;;;;;;;;;;27.26;63.78;97425.63;4880427;29;19959;-70
2022/05/23 15:30:20;;;;;;;;;;;;;;;27.23;62.35;97436.06;4864781;29;19954;-70
2022/05/23 15:32:47;;;;;;;;;;;;;;;27.15;63.62;97429.34;4864928;29;19955;-70
2022/05/23 15:35:16;;;;;;;;;;;;;;;26.99;55.95;97423.69;4864175;29;19981;-70
2022/05/23 15:37:44;;;;;;;;;;;;;;;26.92;52.79;97422.16;4864608;29;19958;-70
2022/05/23 15:40:12;;;;;;;;;;;;;;;26.84;55.11;97428.97;4864611;29;19952;-69
2022/05/23 15:42:43;;;;;;;;;;;;;;;26.72;61.24;97426.16;4864721;29;19955;-69
2022/05/23 15:45:16;;;;;;;;;;;;;;;26.58;66.22;97423.59;4864653;29;19959;-70
2022/05/23 15:47:43;;;;;;;;;;;;;;;26.31;66.68;97430.19;4869314;29;19960;-70
2022/05/23 15:50:12;;;;;;;;;;;;;;;26.18;64.95;97441.41;4864234;29;19953;-70
2022/05/23 15:52:39;;;;;;;;;;;;;;;26.14;68.85;97435.94;4866574;29;19972;-69
2022/05/23 15:55:07;;;;;;;;;;;;;;;26.06;56.88;97435.69;4863960;29;20392;-70
2022/05/23 15:57:37;;;;;;;;;;;;;;;26.00;63.05;97440.63;4864462;29;19951;-69
2022/05/23 16:00:08;;;;;;;;;;;;;;;25.99;51.97;97430.44;4864776;29;20336;-69
2022/05/23 16:02:51;;;;;;;;;;;;;;;26.07;53.96;97430.72;4846687;29;19950;-69
2022/05/23 16:05:18;;;;;;;;;;;;;;;26.06;48.65;97432.03;4879614;29;19975;-70
2022/05/23 16:07:46;;;;;;;;;;;;;;;26.10;53.16;97418.22;4882397;29;19948;-70
2022/05/23 16:10:14;;;;;;;;;;;;;;;26.01;48.38;97432.81;4869320;29;20257;-70
2022/05/23 16:12:48;;;;;;;;;;;;;;;25.94;48.34;97437.00;4881725;29;19965;-70
2022/05/23 16:15:16;;;;;;;;;;;;;;;25.95;46.87;97426.28;4882073;29;19951;-70
2022/05/23 16:17:45;;;;;;;;;;;;;;;25.96;47.52;97414.34;4882927;29;20246;-70
2022/05/23 16:20:15;;;;;;;;;;;;;;;26.05;43.64;97428.38;4883421;29;19949;-70
2022/05/23 16:22:43;;;;;;;;;;;;;;;26.04;45.24;97417.44;4882766;29;19950;-69
2022/05/23 16:25:11;;;;;;;;;;;;;;;25.89;46.60;97414.06;4884895;29;19950;-69
2022/05/23 16:27:39;;;;;;;;;;;;;;;25.83;46.07;97404.69;4882213;29;19951;-69
2022/05/23 16:30:08;;;;;;;;;;;;;;;25.84;47.15;97394.81;4882241;29;19951;-70
2022/05/23 16:38:30;;;;;;;;;;;;;;;25.57;50.22;97369.84;4875284;29;19964;-69
2022/05/23 16:41:01;;;;;;;;;;;;;;;25.54;49.05;97371.66;4881849;29;19959;-69
2022/05/23 16:43:29;;;;;;;;;;;;;;;25.48;45.67;97361.53;4880641;29;19957;-69
2022/05/23 16:45:56;;;;;;;;;;;;;;;25.47;44.23;97337.84;4882927;29;19953;-69
2022/05/23 16:48:23;;;;;;;;;;;;;;;25.43;41.23;97334.44;4881873;29;20219;-69
2022/05/23 16:50:52;;;;;;;;;;;;;;;25.42;42.40;97324.28;4879812;29;19954;-69
2022/05/23 16:53:19;;;;;;;;;;;;;;;25.40;42.03;97318.28;4881704;29;19956;-70
2022/05/23 16:55:46;;;;;;;;;;;;;;;25.40;40.27;97307.63;4883418;29;20018;-69
2022/05/23 16:58:14;;;;;;;;;;;;;;;25.39;40.96;97299.56;4879571;29;20374;-69
2022/05/23 17:00:45;;;;;;;;;;;;;;;25.35;40.23;97276.16;4882492;29;20383;-69
2022/05/23 17:03:13;;;;;;;;;;;;;;;25.25;40.03;97251.97;4882588;29;19963;-70
2022/05/23 17:05:40;;;;;;;;;;;;;;;25.29;37.37;97221.78;4877856;29;19974;-70
2022/05/23 17:08:08;;;;;;;;;;;;;;;25.24;39.01;97225.41;4880054;29;20255;-70
2022/05/23 17:10:36;;;;;;;;;;;;;;;25.25;39.39;97212.69;4881914;29;19956;-69
2022/05/23 17:13:03;;;;;;;;;;;;;;;25.24;39.86;97208.25;4880389;29;19972;-69
2022/05/23 17:15:31;;;;;;;;;;;;;;;25.13;38.16;97222.59;4876056;29;20368;-69
2022/05/23 17:17:58;;;;;;;;;;;;;;;25.06;39.63;97237.41;4880862;29;19948;-69
2022/05/23 17:20:26;;;;;;;;;;;;;;;24.95;40.99;97246.00;4865351;29;19948;-70
2022/05/23 17:22:53;;;;;;;;;;;;;;;24.90;41.67;97223.09;4881970;29;19950;-70
2022/05/23 17:25:23;;;;;;;;;;;;;;;24.84;42.80;97208.03;4880453;29;19947;-69
2022/05/23 17:27:51;;;;;;;;;;;;;;;24.81;44.49;97249.88;4882231;29;19957;-69
2022/05/23 17:30:20;;;;;;;;;;;;;;;24.79;46.16;97261.06;4882853;29;19952;-69
2022/05/23 17:32:47;;;;;;;;;;;;;;;24.70;48.09;97258.41;4883721;29;19992;-70
2022/05/23 17:35:15;;;;;;;;;;;;;;;24.62;49.57;97263.09;4888900;29;19960;-69
2022/05/23 17:37:44;;;;;;;;;;;;;;;24.53;50.62;97269.81;4885306;29;20250;-70
2022/05/23 17:40:14;;;;;;;;;;;;;;;24.55;55.86;97264.38;4885608;29;19961;-69
2022/05/23 17:42:44;;;;;;;;;;;;;;;24.44;58.25;97249.28;4885478;29;19947;-69
2022/05/23 17:45:12;;;;;;;;;;;;;;;24.36;58.70;97253.94;4884922;29;19958;-69
2022/05/23 17:47:40;;;;;;;;;;;;;;;24.29;60.14;97263.78;4884593;29;19949;-69
2022/05/23 17:50:07;;;;;;;;;;;;;;;24.30;63.11;97273.16;4884307;29;19972;-69
2022/05/23 17:52:37;;;;;;;;;;;;;;;24.17;67.19;97273.63;4878658;29;19969;-70
2022/05/23 17:55:05;;;;;;;;;;;;;;;24.11;63.81;97287.88;4886526;29;20247;-69
2022/05/23 17:57:33;;;;;;;;;;;;;;;24.04;63.68;97284.69;4885856;29;20269;-69
2022/05/23 18:00:00;;;;;;;;;;;;;;;23.96;63.69;97275.88;4884539;29;19954;-69
2022/05/23 18:02:27;;;;;;;;;;;;;;;24.02;57.43;97270.16;4884600;29;19950;-69
2022/05/23 18:04:55;;;;;;;;;;;;;;;23.94;57.01;97257.69;4884490;29;19969;-69
2022/05/23 18:07:23;;;;;;;;;;;;;;;23.97;53.88;97263.13;4884145;29;19951;-69
2022/05/23 18:09:50;;;;;;;;;;;;;;;23.90;52.02;97254.25;4884495;29;19950;-69
2022/05/23 18:12:17;;;;;;;;;;;;;;;23.91;52.00;97248.06;4884331;29;20365;-69
2022/05/23 18:33:59;;;;;;;;;;;;;;;23.97;40.89;97257.41;4883856;29;19952;-69
2022/05/23 18:36:26;;;;;;;;;;;;;;;23.96;42.08;97250.16;4883217;29;19956;-69
2022/05/23 18:38:54;;;;;;;;;;;;;;;23.89;41.40;97247.00;4879951;29;19953;-69
2022/05/23 18:41:22;;;;;;;;;;;;;;;23.91;43.13;97258.69;4883680;29;20241;-69
2022/05/23 18:43:50;;;;;;;;;;;;;;;23.77;43.47;97253.97;4882499;29;20268;-69
2022/05/23 18:46:17;;;;;;;;;;;;;;;23.72;41.84;97284.03;4894209;29;19955;-69
2022/05/23 18:51:32;;;;;;;;;;;;;;;23.59;42.31;97274.34;4875183;29;19955;-71
